Time;durP1;ratioP1;P1;durP2;ratioP2;P2;SDS_P1;SDS_P2;PMS_P1;PMS_P2;Temp;Humidity;BMP_temperature;BMP_pressure;BME280_temperature;BME280_humidity;BME280_pressure;Samples;Min_cycle;Max_cycle;Signal;HPM_P1;HPM_P2
2020/12/11 00:02:11;;;;;;;;;;;-0.80;99.90;;;;;;5106038;28;19924;-73
2020/12/11 00:04:37;;;;;;;;;;;-0.80;99.90;;;;;;5113689;28;19928;-73
2020/12/11 00:07:03;;;;;;;;;;;-0.80;99.90;;;;;;5107705;28;19946;-73
2020/12/11 00:09:29;;;;;;;;;;;-0.80;99.90;;;;;;5093837;28;19931;-73
2020/12/11 00:11:55;;;;;;;;;;;-0.80;99.90;;;;;;5089427;28;19925;-74
2020/12/11 00:14:22;;;;;;;;;;;-0.80;99.90;;;;;;5093590;28;20297;-73
2020/12/11 00:16:48;;;;;;;;;;;-0.70;99.90;;;;;;5093802;28;19985;-74
2020/12/11 00:19:14;;;;;;;;;;;-0.80;99.90;;;;;;5093581;28;19924;-73
2020/12/11 00:21:41;;;;;;;;;;;-0.80;99.90;;;;;;5093243;28;19928;-73
2020/12/11 00:24:07;;;;;;;;;;;-0.80;99.90;;;;;;5103496;28;19924;-74
2020/12/11 00:26:33;;;;;;;;;;;-0.70;99.90;;;;;;5109469;28;19925;-73
2020/12/11 00:28:59;;;;;;;;;;;-0.70;99.90;;;;;;5113420;28;19947;-73
2020/12/11 00:31:26;;;;;;;;;;;-0.70;99.90;;;;;;5113298;28;20341;-74
2020/12/11 00:33:52;;;;;;;;;;;-0.70;99.90;;;;;;5113505;28;20437;-74
2020/12/11 00:36:18;;;;;;;;;;;-0.70;99.90;;;;;;5113743;28;20416;-74
2020/12/11 00:38:44;;;;;;;;;;;-0.70;99.90;;;;;;5105816;28;19931;-73
2020/12/11 00:41:11;;;;;;;;;;;-0.70;99.90;;;;;;5093346;28;19928;-74
2020/12/11 00:43:37;;;;;;;;;;;-0.70;99.90;;;;;;5093116;28;19924;-73
2020/12/11 00:46:03;;;;;;;;;;;-0.70;99.90;;;;;;5049508;28;1236424;-73
2020/12/11 00:48:30;;;;;;;;;;;-0.70;99.90;;;;;;5094252;28;19924;-73
2020/12/11 00:50:56;;;;;;;;;;;-0.70;99.90;;;;;;5095143;28;19927;-73
2020/12/11 00:53:22;;;;;;;;;;;-0.70;99.90;;;;;;5093906;28;19970;-74
2020/12/11 00:55:48;;;;;;;;;;;-0.70;99.90;;;;;;5094108;28;19977;-74
2020/12/11 00:58:14;;;;;;;;;;;-0.70;99.90;;;;;;5094033;28;19924;-73
2020/12/11 01:00:40;;;;;;;;;;;-0.60;99.90;;;;;;5093966;28;19977;-74
2020/12/11 01:03:06;;;;;;;;;;;-0.70;99.90;;;;;;5093611;28;19924;-73
2020/12/11 01:05:35;;;;;;;;;;;-0.60;99.90;;;;;;5094153;28;19924;-73
2020/12/11 01:08:01;;;;;;;;;;;-0.60;99.90;;;;;;5103329;28;19928;-73
2020/12/11 01:10:27;;;;;;;;;;;-0.60;99.90;;;;;;5102327;28;20473;-73
2020/12/11 01:12:53;;;;;;;;;;;-0.60;99.90;;;;;;5113361;28;19931;-74
2020/12/11 01:15:19;;;;;;;;;;;-0.60;99.90;;;;;;5113221;28;20391;-73
2020/12/11 01:17:45;;;;;;;;;;;-0.60;99.90;;;;;;5073182;28;19924;-73
2020/12/11 01:20:11;;;;;;;;;;;-0.60;99.90;;;;;;5073236;28;19932;-74
2020/12/11 01:22:38;;;;;;;;;;;-0.70;99.90;;;;;;5111081;28;19992;-73
2020/12/11 01:25:04;;;;;;;;;;;-0.70;99.90;;;;;;5113851;28;19928;-74
2020/12/11 01:27:30;;;;;;;;;;;-0.70;99.90;;;;;;5114023;28;19935;-74
2020/12/11 01:29:56;;;;;;;;;;;-0.70;99.90;;;;;;5113544;27;19924;-73
2020/12/11 01:32:21;;;;;;;;;;;-0.70;99.90;;;;;;5113445;28;19923;-73
2020/12/11 01:34:47;;;;;;;;;;;-0.80;99.90;;;;;;5111073;28;19939;-73
2020/12/11 01:37:13;;;;;;;;;;;-0.80;99.90;;;;;;5093498;28;19924;-73
2020/12/11 01:39:40;;;;;;;;;;;-0.70;99.90;;;;;;5093222;28;19924;-73
2020/12/11 01:42:08;;;;;;;;;;;-0.80;99.90;;;;;;5093114;28;19925;-73
2020/12/11 01:44:34;;;;;;;;;;;-0.80;99.90;;;;;;5093094;28;19932;-73
2020/12/11 01:47:01;;;;;;;;;;;-0.80;99.90;;;;;;5093071;28;19924;-73
2020/12/11 01:49:27;;;;;;;;;;;-0.70;99.90;;;;;;5093231;28;19977;-73
2020/12/11 01:51:54;;;;;;;;;;;-0.70;99.90;;;;;;5094172;28;20383;-73
2020/12/11 01:54:20;;;;;;;;;;;-0.70;99.90;;;;;;5093133;28;19951;-73
2020/12/11 01:56:55;;;;;;;;;;;-0.70;99.90;;;;;;5093106;28;19924;-73
2020/12/11 01:59:26;;;;;;;;;;;-0.70;99.90;;;;;;5092856;28;19977;-73
2020/12/11 02:01:54;;;;;;;;;;;-0.70;99.90;;;;;;5102711;28;19928;-73
2020/12/11 02:04:20;;;;;;;;;;;-0.70;99.90;;;;;;5099971;28;19930;-74
2020/12/11 02:06:48;;;;;;;;;;;-0.80;99.90;;;;;;5092571;28;20406;-74
2020/12/11 02:09:14;;;;;;;;;;;-0.70;99.90;;;;;;5092747;28;19970;-73
2020/12/11 02:11:40;;;;;;;;;;;-0.70;99.90;;;;;;5105282;28;19927;-74
2020/12/11 02:14:08;;;;;;;;;;;-0.70;99.90;;;;;;5112692;28;19931;-73
2020/12/11 02:16:34;;;;;;;;;;;-0.70;99.90;;;;;;5111632;28;19993;-73
2020/12/11 02:19:00;;;;;;;;;;;-0.70;99.90;;;;;;5107266;28;19924;-73
2020/12/11 02:21:26;;;;;;;;;;;-0.60;99.90;;;;;;5092461;28;19930;-73
2020/12/11 02:23:53;;;;;;;;;;;-0.70;99.90;;;;;;5092265;28;19928;-73
2020/12/11 02:26:19;;;;;;;;;;;-0.70;99.90;;;;;;5097455;28;19924;-73
2020/12/11 02:28:44;;;;;;;;;;;-0.70;99.90;;;;;;5112592;28;19953;-73
2020/12/11 02:31:10;;;;;;;;;;;-0.70;99.90;;;;;;5112118;28;19946;-73
2020/12/11 02:33:36;;;;;;;;;;;-0.70;99.90;;;;;;5092370;28;19924;-74
2020/12/11 02:36:02;;;;;;;;;;;-0.80;99.90;;;;;;5093707;28;19950;-74
2020/12/11 02:38:28;;;;;;;;;;;-0.80;99.90;;;;;;5092509;28;19931;-74
2020/12/11 02:40:57;;;;;;;;;;;-0.80;99.90;;;;;;5101736;28;20273;-73
2020/12/11 02:43:23;;;;;;;;;;;-0.80;99.90;;;;;;5112322;28;19932;-74
2020/12/11 02:45:50;;;;;;;;;;;-0.70;99.90;;;;;;5112853;28;20337;-73
2020/12/11 02:48:36;;;;;;;;;;;-0.70;99.90;;;;;;5112854;28;19924;-74
2020/12/11 02:51:02;;;;;;;;;;;-0.70;99.90;;;;;;5081187;28;20340;-74
2020/12/11 02:53:28;;;;;;;;;;;-0.70;99.90;;;;;;5049433;28;19932;-74
2020/12/11 02:55:57;;;;;;;;;;;-0.70;99.90;;;;;;5049689;28;19936;-74
2020/12/11 02:58:23;;;;;;;;;;;-0.70;99.90;;;;;;5054564;28;19924;-74
2020/12/11 03:00:49;;;;;;;;;;;-0.70;99.90;;;;;;5080122;28;20258;-74
2020/12/11 03:03:15;;;;;;;;;;;-0.70;99.90;;;;;;5089418;28;19924;-74
2020/12/11 03:05:41;;;;;;;;;;;-0.70;99.90;;;;;;5089901;28;19924;-75
2020/12/11 03:08:07;;;;;;;;;;;-0.70;99.90;;;;;;5086271;28;20341;-73
2020/12/11 03:10:33;;;;;;;;;;;-0.70;99.90;;;;;;5092119;28;19928;-73
2020/12/11 03:13:00;;;;;;;;;;;-0.70;99.90;;;;;;5104647;28;20402;-74
2020/12/11 03:15:26;;;;;;;;;;;-0.60;99.90;;;;;;5107786;28;19925;-74
2020/12/11 03:17:52;;;;;;;;;;;-0.70;99.90;;;;;;5092094;28;19935;-74
2020/12/11 03:20:22;;;;;;;;;;;-0.70;99.90;;;;;;5108464;28;20372;-73
2020/12/11 03:22:50;;;;;;;;;;;-0.70;99.90;;;;;;5096370;28;20022;-74
2020/12/11 03:25:16;;;;;;;;;;;-0.70;99.90;;;;;;5092024;28;19929;-74
2020/12/11 03:27:42;;;;;;;;;;;-0.70;99.90;;;;;;5092120;28;19928;-74
2020/12/11 03:30:09;;;;;;;;;;;-0.70;99.90;;;;;;5093079;28;19934;-73
2020/12/11 03:32:35;;;;;;;;;;;-0.80;99.90;;;;;;5091635;28;19932;-73
2020/12/11 03:35:01;;;;;;;;;;;-0.80;99.90;;;;;;5091729;28;20300;-73
2020/12/11 03:37:27;;;;;;;;;;;-0.80;99.90;;;;;;5105517;28;19924;-73
2020/12/11 03:39:52;;;;;;;;;;;-0.80;99.90;;;;;;5113669;28;19931;-73
2020/12/11 03:42:18;;;;;;;;;;;-0.80;99.90;;;;;;5115583;28;19924;-73
2020/12/11 03:44:44;;;;;;;;;;;-0.80;99.90;;;;;;5115595;28;19924;-73
2020/12/11 03:47:11;;;;;;;;;;;-0.80;99.90;;;;;;5115159;28;19928;-73
2020/12/11 03:49:37;;;;;;;;;;;-0.80;99.90;;;;;;5115725;28;19973;-73
2020/12/11 03:52:03;;;;;;;;;;;-0.80;99.90;;;;;;5113725;28;19923;-73
2020/12/11 03:54:29;;;;;;;;;;;-0.80;99.90;;;;;;5115756;28;19931;-73
2020/12/11 03:56:55;;;;;;;;;;;-0.70;99.90;;;;;;5108828;28;19924;-73
2020/12/11 03:59:21;;;;;;;;;;;-0.70;99.90;;;;;;5097119;28;19930;-73
2020/12/11 04:01:47;;;;;;;;;;;-0.70;99.90;;;;;;5115129;28;19924;-73
2020/12/11 04:04:14;;;;;;;;;;;-0.60;99.90;;;;;;5115725;28;19954;-73
2020/12/11 04:06:40;;;;;;;;;;;-0.60;99.90;;;;;;5115244;28;19977;-73
2020/12/11 04:09:06;;;;;;;;;;;-0.70;99.90;;;;;;5115179;27;19923;-73
2020/12/11 04:11:35;;;;;;;;;;;-0.70;99.90;;;;;;5107670;28;19924;-73
2020/12/11 04:14:01;;;;;;;;;;;-0.70;99.90;;;;;;5094728;28;19935;-73
2020/12/11 04:16:27;;;;;;;;;;;-0.70;99.90;;;;;;5097592;28;20327;-73
2020/12/11 04:18:53;;;;;;;;;;;-0.80;99.90;;;;;;5115359;28;19935;-73
2020/12/11 04:21:20;;;;;;;;;;;-0.80;99.90;;;;;;5114912;28;19930;-73
2020/12/11 04:23:46;;;;;;;;;;;-0.80;99.90;;;;;;5114867;28;19953;-73
2020/12/11 04:26:12;;;;;;;;;;;-0.80;99.90;;;;;;5100575;28;19941;-73
2020/12/11 04:28:38;;;;;;;;;;;-0.80;99.90;;;;;;5094597;28;20368;-73
2020/12/11 04:31:04;;;;;;;;;;;-0.80;99.90;;;;;;5112763;28;19931;-74
2020/12/11 04:33:30;;;;;;;;;;;-0.70;99.90;;;;;;5114364;28;19969;-73
2020/12/11 04:35:56;;;;;;;;;;;-0.80;99.90;;;;;;5114675;28;19928;-74
2020/12/11 04:38:23;;;;;;;;;;;-0.80;99.90;;;;;;5114389;28;19969;-73
2020/12/11 04:40:54;;;;;;;;;;;-0.90;99.90;;;;;;5114280;28;20325;-73
2020/12/11 04:43:20;;;;;;;;;;;-0.80;99.90;;;;;;5114232;28;19924;-73
2020/12/11 04:45:49;;;;;;;;;;;-0.90;99.90;;;;;;5114747;28;19923;-73
2020/12/11 04:48:14;;;;;;;;;;;-0.80;99.90;;;;;;5114215;28;19924;-74
2020/12/11 04:50:41;;;;;;;;;;;-0.90;99.90;;;;;;5100727;28;19938;-72
2020/12/11 04:53:13;;;;;;;;;;;-0.90;99.90;;;;;;5103978;28;19924;-70
2020/12/11 04:55:42;;;;;;;;;;;-0.80;99.90;;;;;;5111875;28;19927;-69
2020/12/11 04:58:10;;;;;;;;;;;-0.80;99.90;;;;;;5114689;28;19924;-70
2020/12/11 05:00:36;;;;;;;;;;;-0.80;99.90;;;;;;5114130;28;20418;-70
2020/12/11 05:03:02;;;;;;;;;;;-0.80;99.90;;;;;;5114415;28;19924;-70
2020/12/11 05:05:28;;;;;;;;;;;-0.80;99.90;;;;;;5114150;28;19932;-70
2020/12/11 05:07:54;;;;;;;;;;;-0.70;99.90;;;;;;5114197;28;20449;-72
2020/12/11 05:10:20;;;;;;;;;;;-0.70;99.90;;;;;;5114069;28;19924;-73
2020/12/11 05:12:47;;;;;;;;;;;-0.70;99.90;;;;;;5114288;28;19928;-72
2020/12/11 05:15:17;;;;;;;;;;;-0.70;99.90;;;;;;5114391;28;19924;-73
2020/12/11 05:17:43;;;;;;;;;;;-0.70;99.90;;;;;;5114197;28;19924;-70
2020/12/11 05:20:10;;;;;;;;;;;-0.70;99.90;;;;;;5113495;28;19977;-72
2020/12/11 05:22:37;;;;;;;;;;;-0.70;99.90;;;;;;5112864;28;20368;-71
2020/12/11 05:25:04;;;;;;;;;;;-0.80;99.90;;;;;;5113907;28;19928;-70
2020/12/11 05:27:34;;;;;;;;;;;-0.70;99.90;;;;;;5113727;28;19986;-70
2020/12/11 05:30:18;;;;;;;;;;;-0.70;99.90;;;;;;5113794;28;19924;-71
2020/12/11 05:32:45;;;;;;;;;;;-0.80;99.90;;;;;;5113518;28;19936;-71
2020/12/11 05:35:21;;;;;;;;;;;-0.80;99.90;;;;;;5113753;28;20003;-71
2020/12/11 05:37:47;;;;;;;;;;;-0.80;99.90;;;;;;5113933;28;19974;-73
2020/12/11 05:40:17;;;;;;;;;;;-0.80;99.90;;;;;;5113462;28;19923;-76
2020/12/11 05:42:43;;;;;;;;;;;-0.80;99.90;;;;;;5105701;28;19924;-76
2020/12/11 05:45:17;;;;;;;;;;;-0.80;99.90;;;;;;5093205;28;20372;-74
2020/12/11 05:47:43;;;;;;;;;;;-0.80;99.90;;;;;;5093534;28;19971;-74
2020/12/11 05:50:10;;;;;;;;;;;-0.80;99.90;;;;;;5093172;28;20380;-74
2020/12/11 05:52:36;;;;;;;;;;;-0.80;99.90;;;;;;5093113;28;19970;-76
2020/12/11 05:55:02;;;;;;;;;;;-0.80;99.90;;;;;;5093294;28;19928;-73
2020/12/11 05:57:31;;;;;;;;;;;-0.80;99.90;;;;;;5093001;28;19981;-73
2020/12/11 05:59:58;;;;;;;;;;;-0.70;99.90;;;;;;5092773;28;19974;-74
2020/12/11 06:02:25;;;;;;;;;;;-0.70;99.90;;;;;;5092079;28;19931;-72
2020/12/11 06:04:51;;;;;;;;;;;-0.70;99.90;;;;;;5093327;28;19928;-73
2020/12/11 06:07:24;;;;;;;;;;;-0.70;99.90;;;;;;5092806;28;19928;-75
2020/12/11 06:09:51;;;;;;;;;;;-0.70;99.90;;;;;;5093038;28;19977;-74
2020/12/11 06:12:22;;;;;;;;;;;-0.70;99.90;;;;;;5091789;28;19924;-73
2020/12/11 06:15:01;;;;;;;;;;;-0.80;99.90;;;;;;5092936;28;19924;-73
2020/12/11 06:17:31;;;;;;;;;;;-0.70;99.90;;;;;;5093062;28;19924;-73
2020/12/11 06:19:58;;;;;;;;;;;-0.70;99.90;;;;;;5092781;28;19924;-72
2020/12/11 06:22:25;;;;;;;;;;;-0.70;99.90;;;;;;5092121;28;19928;-75
2020/12/11 06:24:51;;;;;;;;;;;-0.60;99.90;;;;;;5092441;28;20012;-72
2020/12/11 06:27:28;;;;;;;;;;;-0.60;99.90;;;;;;5092138;28;19969;-74
2020/12/11 06:29:54;;;;;;;;;;;-0.70;99.90;;;;;;5092423;28;19928;-73
2020/12/11 06:32:31;;;;;;;;;;;-0.60;99.90;;;;;;5092093;28;20013;-72
2020/12/11 06:35:09;;;;;;;;;;;-0.60;99.90;;;;;;5097684;28;19924;-72
2020/12/11 06:37:38;;;;;;;;;;;-0.60;99.90;;;;;;5112309;28;19923;-72
2020/12/11 06:40:04;;;;;;;;;;;-0.60;99.90;;;;;;5112190;28;19928;-72
2020/12/11 06:42:43;;;;;;;;;;;-0.60;99.90;;;;;;5110542;28;19923;-72
2020/12/11 06:45:16;;;;;;;;;;;-0.60;99.90;;;;;;5112319;28;19924;-73
2020/12/11 06:47:47;;;;;;;;;;;-0.60;99.90;;;;;;5112328;28;19977;-71
2020/12/11 06:50:13;;;;;;;;;;;-0.50;99.90;;;;;;5095318;28;19965;-71
2020/12/11 06:52:39;;;;;;;;;;;-0.50;99.90;;;;;;5091401;28;19928;-73
2020/12/11 06:55:05;;;;;;;;;;;-0.50;99.90;;;;;;5092017;28;20308;-69
2020/12/11 06:57:32;;;;;;;;;;;-0.50;99.90;;;;;;5092073;28;19931;-69
2020/12/11 06:59:58;;;;;;;;;;;-0.50;99.90;;;;;;5091800;28;20358;-69
2020/12/11 07:02:25;;;;;;;;;;;-0.50;99.90;;;;;;5111340;28;19924;-71
2020/12/11 07:04:51;;;;;;;;;;;-0.50;99.90;;;;;;5112165;28;19928;-70
2020/12/11 07:07:18;;;;;;;;;;;-0.40;99.90;;;;;;5111839;28;19974;-72
2020/12/11 07:09:45;;;;;;;;;;;-0.40;99.90;;;;;;5112343;28;19923;-71
2020/12/11 07:12:11;;;;;;;;;;;-0.40;99.90;;;;;;5112345;28;19992;-71
2020/12/11 07:14:38;;;;;;;;;;;-0.30;99.90;;;;;;5114293;28;19923;-72
2020/12/11 07:17:04;;;;;;;;;;;-0.30;99.90;;;;;;5112836;28;19924;-71
2020/12/11 07:19:32;;;;;;;;;;;-0.30;99.90;;;;;;5095944;28;19925;-71
2020/12/11 07:21:59;;;;;;;;;;;-0.30;99.90;;;;;;5095465;28;19935;-71
2020/12/11 07:24:28;;;;;;;;;;;-0.20;99.90;;;;;;5096106;28;19928;-72
2020/12/11 07:26:58;;;;;;;;;;;-0.30;99.90;;;;;;5095968;28;19924;-71
2020/12/11 07:29:24;;;;;;;;;;;-0.30;99.90;;;;;;5096374;28;19924;-71
2020/12/11 07:31:50;;;;;;;;;;;-0.30;99.90;;;;;;5095445;28;19947;-69
2020/12/11 07:34:17;;;;;;;;;;;-0.30;99.90;;;;;;5095617;28;19931;-69
2020/12/11 07:36:44;;;;;;;;;;;-0.30;99.90;;;;;;5095885;28;19924;-75
2020/12/11 07:39:13;;;;;;;;;;;-0.40;99.90;;;;;;5095709;28;19923;-71
2020/12/11 07:41:42;;;;;;;;;;;-0.30;99.90;;;;;;5095211;28;19928;-72
2020/12/11 07:44:08;;;;;;;;;;;-0.30;99.90;;;;;;5095466;28;19974;-73
2020/12/11 07:46:34;;;;;;;;;;;-0.30;99.90;;;;;;5095438;28;19928;-72
2020/12/11 07:49:00;;;;;;;;;;;-0.30;99.90;;;;;;5114168;28;19932;-73
2020/12/11 07:51:26;;;;;;;;;;;-0.30;99.90;;;;;;5104309;28;19944;-73
2020/12/11 07:53:52;;;;;;;;;;;-0.40;99.90;;;;;;5095221;28;19928;-70
2020/12/11 07:56:18;;;;;;;;;;;-0.40;99.90;;;;;;5095392;28;19932;-73
2020/12/11 07:58:45;;;;;;;;;;;-0.40;99.90;;;;;;5095193;28;20300;-73
2020/12/11 08:01:12;;;;;;;;;;;-0.50;99.90;;;;;;5095097;28;19970;-73
2020/12/11 08:03:38;;;;;;;;;;;-0.60;99.90;;;;;;5095012;28;19924;-74
2020/12/11 08:06:10;;;;;;;;;;;-0.60;99.90;;;;;;5095292;28;19977;-72
2020/12/11 08:08:36;;;;;;;;;;;-0.50;99.90;;;;;;5095269;28;19924;-74
2020/12/11 08:11:02;;;;;;;;;;;-0.50;99.90;;;;;;5095131;28;19959;-74
2020/12/11 08:13:28;;;;;;;;;;;-0.40;99.90;;;;;;5094679;28;19931;-73
2020/12/11 08:16:01;;;;;;;;;;;-0.40;99.90;;;;;;5100563;28;19928;-71
2020/12/11 08:18:29;;;;;;;;;;;-0.50;99.90;;;;;;5115302;28;19924;-72
2020/12/11 08:20:56;;;;;;;;;;;-0.50;99.90;;;;;;5115023;28;19924;-73
2020/12/11 08:23:28;;;;;;;;;;;-0.40;99.90;;;;;;5115134;28;19931;-71
2020/12/11 08:26:04;;;;;;;;;;;-0.40;99.90;;;;;;5114810;28;19930;-71
2020/12/11 08:28:30;;;;;;;;;;;-0.50;99.90;;;;;;5115056;28;19924;-76
2020/12/11 08:30:56;;;;;;;;;;;-0.50;99.90;;;;;;5114832;28;20403;-76
2020/12/11 08:33:24;;;;;;;;;;;-0.50;99.90;;;;;;5114770;28;19923;-72
2020/12/11 08:35:50;;;;;;;;;;;-0.40;99.90;;;;;;5115136;28;19950;-72
2020/12/11 08:38:16;;;;;;;;;;;-0.30;99.90;;;;;;5114910;28;19977;-71
2020/12/11 08:40:46;;;;;;;;;;;-0.30;99.90;;;;;;5108625;28;19928;-72
2020/12/11 08:43:17;;;;;;;;;;;-0.30;99.90;;;;;;5094302;28;19928;-73
2020/12/11 08:45:51;;;;;;;;;;;-0.20;99.90;;;;;;5112324;28;19931;-70
2020/12/11 08:48:36;;;;;;;;;;;-0.20;99.90;;;;;;5114868;28;20036;-72
2020/12/11 08:51:05;;;;;;;;;;;-0.20;99.90;;;;;;5114651;28;20333;-73
2020/12/11 08:53:36;;;;;;;;;;;-0.20;99.90;;;;;;5113986;28;19924;-71
2020/12/11 08:56:02;;;;;;;;;;;-0.30;99.90;;;;;;5114725;28;19963;-68
2020/12/11 08:58:28;;;;;;;;;;;-0.30;99.90;;;;;;5102783;28;19970;-70
2020/12/11 09:00:53;;;;;;;;;;;-0.30;99.90;;;;;;5093925;28;19924;-73
2020/12/11 09:03:19;;;;;;;;;;;-0.30;99.90;;;;;;5093816;28;20324;-72
2020/12/11 09:05:45;;;;;;;;;;;-0.30;99.90;;;;;;5094164;28;19982;-71
2020/12/11 09:08:12;;;;;;;;;;;-0.30;99.90;;;;;;5094018;28;20456;-68
2020/12/11 09:10:38;;;;;;;;;;;-0.40;99.90;;;;;;5093970;28;20034;-69
2020/12/11 09:13:06;;;;;;;;;;;-0.40;99.90;;;;;;5103710;28;20395;-74
2020/12/11 09:15:32;;;;;;;;;;;-0.30;99.90;;;;;;5114219;28;19935;-75
2020/12/11 09:17:58;;;;;;;;;;;-0.30;99.90;;;;;;5114160;28;19945;-74
2020/12/11 09:20:24;;;;;;;;;;;-0.40;99.90;;;;;;5114064;28;19928;-73
2020/12/11 09:22:50;;;;;;;;;;;-0.40;99.90;;;;;;5113942;28;20395;-71
2020/12/11 09:25:18;;;;;;;;;;;-0.40;99.90;;;;;;5114074;28;19994;-71
2020/12/11 09:27:44;;;;;;;;;;;-0.40;99.90;;;;;;5114004;28;19924;-70
2020/12/11 09:30:19;;;;;;;;;;;-0.40;99.90;;;;;;5109908;28;19928;-72
2020/12/11 09:32:54;;;;;;;;;;;-0.40;99.90;;;;;;5072769;28;20384;-71
2020/12/11 09:35:20;;;;;;;;;;;-0.40;99.90;;;;;;5076652;28;19932;-70
2020/12/11 09:37:49;;;;;;;;;;;-0.40;99.90;;;;;;5092709;28;19936;-72
2020/12/11 09:40:16;;;;;;;;;;;-0.30;99.90;;;;;;5094508;28;19931;-73
2020/12/11 09:43:10;;;;;;;;;;;-0.20;99.90;;;;;;5113482;28;19924;-73
2020/12/11 09:45:39;;;;;;;;;;;-0.20;99.90;;;;;;5113624;28;19959;-72
2020/12/11 09:48:14;;;;;;;;;;;-0.20;99.90;;;;;;5113260;28;19963;-74
2020/12/11 09:50:47;;;;;;;;;;;-0.20;99.90;;;;;;5113545;28;19924;-71
2020/12/11 09:53:31;;;;;;;;;;;-0.20;99.90;;;;;;5113146;28;19931;-72
2020/12/11 09:56:02;;;;;;;;;;;-0.20;99.90;;;;;;5113393;28;20380;-69
2020/12/11 09:58:29;;;;;;;;;;;-0.20;99.90;;;;;;5107260;28;19954;-73
2020/12/11 10:00:55;;;;;;;;;;;-0.20;99.90;;;;;;5093007;28;19924;-73
2020/12/11 10:03:23;;;;;;;;;;;-0.20;99.90;;;;;;5108914;28;20399;-73
2020/12/11 10:05:48;;;;;;;;;;;-0.20;99.90;;;;;;5112483;28;19928;-72
2020/12/11 10:08:16;;;;;;;;;;;-0.20;99.90;;;;;;5092768;28;20352;-72
2020/12/11 10:10:42;;;;;;;;;;;-0.20;99.90;;;;;;5092777;28;20459;-72
2020/12/11 10:13:08;;;;;;;;;;;-0.20;99.90;;;;;;5092628;28;19925;-72
2020/12/11 10:15:35;;;;;;;;;;;-0.20;99.90;;;;;;5092832;28;19924;-72
2020/12/11 10:18:03;;;;;;;;;;;-0.20;99.90;;;;;;5092699;28;19993;-72
2020/12/11 10:20:29;;;;;;;;;;;-0.20;99.90;;;;;;5092541;28;20404;-75
2020/12/11 10:22:56;;;;;;;;;;;-0.10;99.90;;;;;;5096417;28;19976;-75
2020/12/11 10:25:22;;;;;;;;;;;-0.10;99.90;;;;;;5109271;28;20117;-71
2020/12/11 10:27:48;;;;;;;;;;;-0.10;99.90;;;;;;5109027;28;19935;-71
2020/12/11 10:30:14;;;;;;;;;;;0.00;99.90;;;;;;5112831;28;19928;-71
2020/12/11 10:32:41;;;;;;;;;;;0.00;99.90;;;;;;5112674;28;19969;-71
2020/12/11 10:35:08;;;;;;;;;;;0.00;99.90;;;;;;5113001;28;19924;-70
2020/12/11 10:37:34;;;;;;;;;;;0.00;99.90;;;;;;5113025;28;19928;-72
2020/12/11 10:40:02;;;;;;;;;;;0.00;99.90;;;;;;5112893;28;19964;-71
2020/12/11 10:42:28;;;;;;;;;;;0.10;99.90;;;;;;5112508;28;19985;-71
2020/12/11 10:44:54;;;;;;;;;;;0.10;99.90;;;;;;5112515;28;20380;-73
2020/12/11 10:47:20;;;;;;;;;;;0.10;99.90;;;;;;5112843;28;19924;-71
2020/12/11 10:49:47;;;;;;;;;;;0.20;99.90;;;;;;5116754;28;19936;-72
2020/12/11 10:52:14;;;;;;;;;;;0.20;99.90;;;;;;5116893;28;19928;-71
2020/12/11 10:54:40;;;;;;;;;;;0.30;99.90;;;;;;5117052;28;19931;-71
2020/12/11 10:57:06;;;;;;;;;;;0.30;99.90;;;;;;5116999;28;19971;-70
2020/12/11 10:59:32;;;;;;;;;;;0.30;99.90;;;;;;5116838;28;19928;-71
2020/12/11 11:01:58;;;;;;;;;;;0.40;99.90;;;;;;5116413;28;19931;-71
2020/12/11 11:04:24;;;;;;;;;;;0.40;99.90;;;;;;5116583;28;20000;-71
2020/12/11 11:06:53;;;;;;;;;;;0.40;99.90;;;;;;5116879;28;19930;-70
2020/12/11 11:09:30;;;;;;;;;;;0.40;99.90;;;;;;5116534;28;19928;-71
2020/12/11 11:12:01;;;;;;;;;;;0.40;99.90;;;;;;5116354;28;19924;-71
2020/12/11 11:20:07;;;;;;;;;;;0.30;99.90;;;;;;5100545;28;19919;-70
2020/12/11 11:22:43;;;;;;;;;;;0.30;99.90;;;;;;5116000;28;19930;-71
2020/12/11 11:27:54;;;;;;;;;;;0.40;99.90;;;;;;5116219;28;19927;-71
2020/12/11 11:30:21;;;;;;;;;;;0.40;99.90;;;;;;5116206;28;20014;-71
2020/12/11 11:32:50;;;;;;;;;;;0.50;99.90;;;;;;5116082;28;19924;-71
2020/12/11 11:35:16;;;;;;;;;;;0.50;99.90;;;;;;5116086;28;19923;-70
2020/12/11 11:37:43;;;;;;;;;;;0.50;99.90;;;;;;5116121;28;19928;-71
2020/12/11 11:40:09;;;;;;;;;;;0.50;99.90;;;;;;5116194;28;19928;-70
2020/12/11 11:42:35;;;;;;;;;;;0.50;99.90;;;;;;5115754;28;19924;-70
2020/12/11 11:45:02;;;;;;;;;;;0.60;99.90;;;;;;5116006;28;20277;-71
2020/12/11 11:47:29;;;;;;;;;;;0.70;99.90;;;;;;5115835;28;20403;-70
2020/12/11 11:52:37;;;;;;;;;;;0.70;99.90;;;;;;5112697;28;19920;-70
2020/12/11 11:55:05;;;;;;;;;;;0.80;99.90;;;;;;5115753;28;20451;-70
2020/12/11 11:57:31;;;;;;;;;;;0.80;99.90;;;;;;5115804;28;19977;-70
2020/12/11 11:59:57;;;;;;;;;;;0.80;99.90;;;;;;5114711;28;19927;-70
2020/12/11 12:02:23;;;;;;;;;;;0.90;99.90;;;;;;5115121;28;19923;-70
2020/12/11 12:04:49;;;;;;;;;;;0.90;99.90;;;;;;5115242;28;20411;-70
2020/12/11 12:07:25;;;;;;;;;;;1.00;99.90;;;;;;5115752;28;19930;-70
2020/12/11 12:09:51;;;;;;;;;;;0.90;99.90;;;;;;5115314;28;19935;-70
2020/12/11 12:12:18;;;;;;;;;;;0.90;99.90;;;;;;5115274;27;19928;-70
2020/12/11 12:14:46;;;;;;;;;;;0.80;99.90;;;;;;5115210;28;19924;-70
2020/12/11 12:17:12;;;;;;;;;;;0.80;99.90;;;;;;5115356;28;19924;-70
2020/12/11 12:19:41;;;;;;;;;;;0.90;99.90;;;;;;5115208;28;19927;-70
2020/12/11 12:22:52;;;;;;;;;;;0.80;99.90;;;;;;5114974;28;20022;-70
2020/12/11 12:28:23;;;;;;;;;;;0.90;99.90;;;;;;5115008;28;19976;-71
2020/12/11 12:30:49;;;;;;;;;;;1.00;99.90;;;;;;5115059;28;20397;-70
2020/12/11 12:36:20;;;;;;;;;;;1.10;99.90;;;;;;5114639;28;19919;-70
2020/12/11 12:38:51;;;;;;;;;;;1.20;99.90;;;;;;5115041;28;19924;-69
2020/12/11 12:44:02;;;;;;;;;;;1.30;99.90;;;;;;5114648;28;19927;-70
2020/12/11 12:46:29;;;;;;;;;;;1.30;99.90;;;;;;5114482;28;20365;-70
2020/12/11 12:48:55;;;;;;;;;;;1.30;99.90;;;;;;5114866;28;19927;-70
2020/12/11 12:51:21;;;;;;;;;;;1.40;99.90;;;;;;5114479;28;19923;-70
2020/12/11 12:53:47;;;;;;;;;;;1.40;99.90;;;;;;5114436;28;19930;-70
2020/12/11 12:56:36;;;;;;;;;;;1.40;99.90;;;;;;5114792;28;20385;-70
2020/12/11 12:59:08;;;;;;;;;;;1.50;99.90;;;;;;5114427;28;20308;-70
2020/12/11 13:01:41;;;;;;;;;;;1.50;99.90;;;;;;5114286;28;20031;-70
2020/12/11 13:06:50;;;;;;;;;;;1.50;99.90;;;;;;5114002;28;19926;-70
2020/12/11 13:09:18;;;;;;;;;;;1.50;99.90;;;;;;5114181;28;19924;-70
2020/12/11 13:11:47;;;;;;;;;;;1.50;99.90;;;;;;5113733;28;19925;-71
2020/12/11 13:14:14;;;;;;;;;;;1.50;99.90;;;;;;5114159;28;19928;-71
2020/12/11 13:16:40;;;;;;;;;;;1.40;99.90;;;;;;5114170;28;19924;-71
2020/12/11 13:19:07;;;;;;;;;;;1.40;99.90;;;;;;5114054;28;19939;-71
2020/12/11 13:21:37;;;;;;;;;;;1.50;99.90;;;;;;5113646;28;19977;-71
2020/12/11 13:26:49;;;;;;;;;;;1.60;99.90;;;;;;5113961;28;20327;-71
2020/12/11 13:29:16;;;;;;;;;;;1.70;99.90;;;;;;5113700;28;20376;-71
2020/12/11 13:31:42;;;;;;;;;;;1.80;99.90;;;;;;5113641;28;20356;-71
2020/12/11 13:34:08;;;;;;;;;;;1.90;99.90;;;;;;5113719;28;19931;-71
2020/12/11 13:36:34;;;;;;;;;;;1.80;99.90;;;;;;5113621;28;19947;-71
2020/12/11 13:39:00;;;;;;;;;;;1.90;99.90;;;;;;5113786;28;19924;-71
2020/12/11 13:41:26;;;;;;;;;;;1.90;99.90;;;;;;5113531;28;19974;-71
2020/12/11 13:43:52;;;;;;;;;;;1.90;99.90;;;;;;5113311;28;19924;-72
2020/12/11 13:46:19;;;;;;;;;;;1.90;99.90;;;;;;5113368;28;19931;-70
2020/12/11 13:48:45;;;;;;;;;;;1.90;99.90;;;;;;5113509;28;19928;-71
2020/12/11 13:51:12;;;;;;;;;;;1.90;99.90;;;;;;5113279;28;19924;-70
2020/12/11 13:53:38;;;;;;;;;;;1.80;99.90;;;;;;5113043;28;19923;-70
2020/12/11 13:56:04;;;;;;;;;;;1.80;99.90;;;;;;5113589;28;19969;-70
2020/12/11 13:58:30;;;;;;;;;;;1.70;99.90;;;;;;5113403;28;20308;-71
2020/12/11 14:00:56;;;;;;;;;;;1.60;99.90;;;;;;5113162;28;19930;-70
2020/12/11 14:03:23;;;;;;;;;;;1.60;99.90;;;;;;5112919;28;19924;-70
2020/12/11 14:05:49;;;;;;;;;;;1.50;99.90;;;;;;5113034;28;19977;-70
2020/12/11 14:08:15;;;;;;;;;;;1.50;99.90;;;;;;5113206;28;19931;-71
2020/12/11 14:10:42;;;;;;;;;;;1.40;99.90;;;;;;5113043;28;20306;-70
2020/12/11 14:13:08;;;;;;;;;;;1.30;99.90;;;;;;5112872;28;19953;-70
2020/12/11 14:15:34;;;;;;;;;;;1.30;99.90;;;;;;5113259;28;19923;-70
2020/12/11 14:18:15;;;;;;;;;;;1.20;99.90;;;;;;5113123;28;20017;-70
2020/12/11 14:20:55;;;;;;;;;;;1.20;99.90;;;;;;5112885;28;20447;-70
2020/12/11 14:23:22;;;;;;;;;;;1.20;99.90;;;;;;5112213;28;19931;-70
2020/12/11 14:25:48;;;;;;;;;;;1.20;99.90;;;;;;5112730;28;20380;-70
2020/12/11 14:28:14;;;;;;;;;;;1.20;99.90;;;;;;5112805;28;19924;-70
2020/12/11 14:30:40;;;;;;;;;;;1.20;99.90;;;;;;5112724;28;19935;-70
2020/12/11 14:33:08;;;;;;;;;;;1.20;99.90;;;;;;5112564;28;20372;-70
2020/12/11 14:35:34;;;;;;;;;;;1.10;99.90;;;;;;5112727;28;19924;-70
2020/12/11 14:38:08;;;;;;;;;;;1.10;99.90;;;;;;5112778;28;19924;-70
2020/12/11 14:40:34;;;;;;;;;;;1.10;99.90;;;;;;5112717;28;19924;-70
2020/12/11 14:43:00;;;;;;;;;;;1.10;99.90;;;;;;5112320;28;19930;-70
2020/12/11 14:45:26;;;;;;;;;;;1.10;99.90;;;;;;5112411;28;19931;-70
2020/12/11 14:47:52;;;;;;;;;;;1.00;99.90;;;;;;5112776;28;19931;-71
2020/12/11 14:50:18;;;;;;;;;;;1.00;99.90;;;;;;5112607;28;19949;-71